Bunker, Utah
Current Conditions -  °F | °C
As of 1:51 PM on Thursday 20 Nov 2014 (Local Time) from KPVU Reporting Station
Broken Clouds Broken Clouds  
Wind Chill: 35°   Ceiling: 12000
Heat Index: 39°   Visibility: 15mi
Dew Point: 21°   Wind: 6mph
Humidity: 49%   Direction: NA
Pressure: 30.07"   Gusts: NA
Location:  40.2724°N, 111.717°W
Report Text: KPVU 202051Z VRB05KT 15SM BKN120 04/M06 A3007
Loading
Personal Weather Stations






























Interactive Weather Map New forecast layout! Learn more

10-Day Weather Forecast

Advertisements
Track Severe Weather on mobile